Time;durP1;ratioP1;P1;durP2;ratioP2;P2;SDS_P1;SDS_P2;PMS_P1;PMS_P2;Temp;Humidity;BMP_temperature;BMP_pressure;BME280_temperature;BME280_humidity;BME280_pressure;Samples;Min_cycle;Max_cycle;Signal;HPM_P1;HPM_P2
2022/04/13 00:01:43;;;;;;;;;;;9.10;80.70;;;;;;5105971;28;20335;-72
2022/04/13 00:04:09;;;;;;;;;;;9.10;80.70;;;;;;5115991;28;19908;-72
2022/04/13 00:06:41;;;;;;;;;;;9.00;80.90;;;;;;5113331;28;19915;-72
2022/04/13 00:09:08;;;;;;;;;;;9.00;81.00;;;;;;5119517;28;19919;-72
2022/04/13 00:11:34;;;;;;;;;;;9.00;81.00;;;;;;5087237;28;19908;-73
2022/04/13 00:14:00;;;;;;;;;;;8.90;81.10;;;;;;5119320;28;19957;-72
2022/04/13 00:16:26;;;;;;;;;;;8.90;81.10;;;;;;5116514;28;20362;-73
2022/04/13 00:18:51;;;;;;;;;;;8.90;81.20;;;;;;5119366;28;19930;-73
2022/04/13 00:21:17;;;;;;;;;;;8.90;81.40;;;;;;5119091;28;20385;-72
2022/04/13 00:23:42;;;;;;;;;;;8.90;81.30;;;;;;5118983;28;19915;-72
2022/04/13 00:26:08;;;;;;;;;;;8.90;81.40;;;;;;5108772;28;19908;-72
2022/04/13 00:28:34;;;;;;;;;;;8.90;81.80;;;;;;5117727;28;19979;-72
2022/04/13 00:30:59;;;;;;;;;;;8.80;81.70;;;;;;5118820;28;19929;-72
2022/04/13 00:33:25;;;;;;;;;;;8.80;81.90;;;;;;5089334;28;20363;-72
2022/04/13 00:35:52;;;;;;;;;;;8.80;81.80;;;;;;5067197;28;19912;-72
2022/04/13 00:38:19;;;;;;;;;;;8.80;81.60;;;;;;5082333;28;19908;-72
2022/04/13 00:40:45;;;;;;;;;;;8.70;81.70;;;;;;5080200;28;20028;-72
2022/04/13 00:43:11;;;;;;;;;;;8.70;81.70;;;;;;5088705;28;19944;-72
2022/04/13 00:45:36;;;;;;;;;;;8.70;81.90;;;;;;5080794;28;19999;-72
2022/04/13 00:48:03;;;;;;;;;;;8.60;81.90;;;;;;5070332;28;19947;-72
2022/04/13 00:50:32;;;;;;;;;;;8.60;82.20;;;;;;5091551;28;20316;-72
2022/04/13 00:52:59;;;;;;;;;;;8.60;82.40;;;;;;5088574;28;19956;-72
2022/04/13 00:55:26;;;;;;;;;;;8.50;82.30;;;;;;5080513;28;19915;-72
2022/04/13 00:57:53;;;;;;;;;;;8.50;82.30;;;;;;5088410;28;20397;-72
2022/04/13 01:00:19;;;;;;;;;;;8.50;82.20;;;;;;5079687;28;19912;-72
2022/04/13 01:02:45;;;;;;;;;;;8.40;82.00;;;;;;5078528;28;19912;-72
2022/04/13 01:05:11;;;;;;;;;;;8.40;82.10;;;;;;5088447;28;19920;-72
2022/04/13 01:07:38;;;;;;;;;;;8.30;82.00;;;;;;5087550;28;19913;-72
2022/04/13 01:10:07;;;;;;;;;;;8.30;82.00;;;;;;5073023;28;19944;-72
2022/04/13 01:12:33;;;;;;;;;;;8.30;82.00;;;;;;5087684;28;20367;-72
2022/04/13 01:14:59;;;;;;;;;;;8.30;82.10;;;;;;5086421;28;19912;-72
2022/04/13 01:17:25;;;;;;;;;;;8.20;82.00;;;;;;5092853;28;20061;-72
2022/04/13 01:19:51;;;;;;;;;;;8.20;82.30;;;;;;5094057;28;19912;-72
2022/04/13 01:22:19;;;;;;;;;;;8.20;82.40;;;;;;5086390;28;19908;-72
2022/04/13 01:24:45;;;;;;;;;;;8.20;82.60;;;;;;5061691;28;19909;-73
2022/04/13 01:27:11;;;;;;;;;;;8.10;82.70;;;;;;5064473;28;19917;-73
2022/04/13 01:29:37;;;;;;;;;;;8.10;83.00;;;;;;5086243;28;19942;-73
2022/04/13 01:32:03;;;;;;;;;;;8.10;83.80;;;;;;5081554;28;19924;-72
2022/04/13 01:34:29;;;;;;;;;;;8.00;83.30;;;;;;5077355;28;19920;-72
2022/04/13 01:36:54;;;;;;;;;;;8.00;83.30;;;;;;5077213;28;19912;-72
2022/04/13 01:39:20;;;;;;;;;;;8.00;83.10;;;;;;5077299;28;19915;-73
2022/04/13 01:41:46;;;;;;;;;;;7.90;82.60;;;;;;5077575;28;19993;-72
2022/04/13 01:44:15;;;;;;;;;;;7.90;82.80;;;;;;5077378;28;20390;-73
2022/04/13 01:46:41;;;;;;;;;;;7.80;83.00;;;;;;5077387;28;19922;-73
2022/04/13 01:49:06;;;;;;;;;;;7.80;82.80;;;;;;5077408;28;20356;-72
2022/04/13 01:51:32;;;;;;;;;;;7.80;83.20;;;;;;5077568;28;19909;-72
2022/04/13 01:53:57;;;;;;;;;;;7.80;82.50;;;;;;5077502;28;19909;-73
2022/04/13 01:56:23;;;;;;;;;;;7.70;82.40;;;;;;5063856;28;19909;-72
2022/04/13 01:58:49;;;;;;;;;;;7.70;82.60;;;;;;5074010;28;19912;-72
2022/04/13 02:01:14;;;;;;;;;;;7.60;82.60;;;;;;5076869;28;20378;-73
2022/04/13 02:03:43;;;;;;;;;;;7.60;82.50;;;;;;5080697;28;19915;-73
2022/04/13 02:06:08;;;;;;;;;;;7.60;82.70;;;;;;5080943;28;19919;-73
2022/04/13 02:08:34;;;;;;;;;;;7.60;82.70;;;;;;5080881;28;19956;-73
2022/04/13 02:11:00;;;;;;;;;;;7.50;82.60;;;;;;5080471;28;19913;-73
2022/04/13 02:13:26;;;;;;;;;;;7.50;82.50;;;;;;5080445;28;19914;-73
2022/04/13 02:15:52;;;;;;;;;;;7.50;82.60;;;;;;5062417;28;19912;-73
2022/04/13 02:18:17;;;;;;;;;;;7.50;82.60;;;;;;5062605;28;19915;-73
2022/04/13 02:20:43;;;;;;;;;;;7.50;82.80;;;;;;5080586;28;19923;-72
2022/04/13 02:23:08;;;;;;;;;;;7.40;82.80;;;;;;5080447;28;19909;-73
2022/04/13 02:25:35;;;;;;;;;;;7.40;82.70;;;;;;5079751;28;19919;-73
2022/04/13 02:28:04;;;;;;;;;;;7.40;82.60;;;;;;5078067;28;19912;-73
2022/04/13 02:30:30;;;;;;;;;;;7.30;82.50;;;;;;5079959;28;19997;-73
2022/04/13 02:32:55;;;;;;;;;;;7.40;82.80;;;;;;5097626;28;19920;-73
2022/04/13 02:35:21;;;;;;;;;;;7.30;82.90;;;;;;5121267;28;19942;-73
2022/04/13 02:37:46;;;;;;;;;;;7.30;82.70;;;;;;5113277;28;19912;-72
2022/04/13 02:40:13;;;;;;;;;;;7.30;82.80;;;;;;5102300;28;19916;-73
2022/04/13 02:42:39;;;;;;;;;;;7.20;82.90;;;;;;5100817;28;19908;-73
2022/04/13 02:45:05;;;;;;;;;;;7.20;82.90;;;;;;5100403;28;19915;-72
2022/04/13 02:47:35;;;;;;;;;;;7.20;82.90;;;;;;5100614;28;20270;-72
2022/04/13 02:50:00;;;;;;;;;;;7.20;83.00;;;;;;5100582;28;19912;-73
2022/04/13 02:52:28;;;;;;;;;;;7.20;83.20;;;;;;5100634;28;20398;-73
2022/04/13 02:54:54;;;;;;;;;;;7.20;83.30;;;;;;5099953;28;19930;-73
2022/04/13 02:57:20;;;;;;;;;;;7.20;83.40;;;;;;5099705;28;19908;-73
2022/04/13 02:59:48;;;;;;;;;;;7.30;83.70;;;;;;5115747;28;19969;-72
2022/04/13 03:02:14;;;;;;;;;;;7.30;83.90;;;;;;5120288;28;19994;-73
2022/04/13 03:04:42;;;;;;;;;;;7.30;84.20;;;;;;5106919;28;19907;-72
2022/04/13 03:07:09;;;;;;;;;;;7.30;84.40;;;;;;5091082;28;20002;-72
2022/04/13 03:09:35;;;;;;;;;;;7.40;85.00;;;;;;5109821;28;19916;-72
2022/04/13 03:12:01;;;;;;;;;;;7.40;85.00;;;;;;5117702;28;20262;-72
2022/04/13 03:14:26;;;;;;;;;;;7.40;85.00;;;;;;5103164;28;20306;-73
2022/04/13 03:16:52;;;;;;;;;;;7.50;85.20;;;;;;5105393;28;20356;-72
2022/04/13 03:19:18;;;;;;;;;;;7.50;85.40;;;;;;5116345;28;19914;-73
2022/04/13 03:21:43;;;;;;;;;;;7.50;85.70;;;;;;5091534;28;20003;-73
2022/04/13 03:24:09;;;;;;;;;;;7.60;86.10;;;;;;5119864;28;20515;-72
2022/04/13 03:26:34;;;;;;;;;;;7.60;86.30;;;;;;5107115;28;19913;-72
2022/04/13 03:29:00;;;;;;;;;;;7.60;86.60;;;;;;5104745;28;19912;-72
2022/04/13 03:31:26;;;;;;;;;;;7.70;86.80;;;;;;5118905;28;20263;-73
2022/04/13 03:33:51;;;;;;;;;;;7.70;87.20;;;;;;5103458;28;19916;-73
2022/04/13 03:36:18;;;;;;;;;;;7.70;86.90;;;;;;5118370;28;19908;-73
2022/04/13 03:38:44;;;;;;;;;;;7.80;86.50;;;;;;5116490;28;19922;-73
2022/04/13 03:41:10;;;;;;;;;;;7.80;86.50;;;;;;5099535;28;19963;-73
2022/04/13 03:43:35;;;;;;;;;;;7.80;86.50;;;;;;5113634;28;19911;-72
2022/04/13 03:46:01;;;;;;;;;;;7.80;86.50;;;;;;5091966;28;19908;-72
2022/04/13 03:48:27;;;;;;;;;;;7.80;86.80;;;;;;5103157;28;19960;-72
2022/04/13 03:50:55;;;;;;;;;;;7.90;86.80;;;;;;5117338;28;19923;-73
2022/04/13 03:53:21;;;;;;;;;;;7.90;87.40;;;;;;5119123;28;19908;-74
2022/04/13 03:55:46;;;;;;;;;;;7.90;86.70;;;;;;5099293;28;20393;-72
2022/04/13 03:58:12;;;;;;;;;;;8.00;86.70;;;;;;5106143;28;19908;-72
2022/04/13 04:00:37;;;;;;;;;;;8.00;86.70;;;;;;5099237;28;19908;-73
2022/04/13 04:03:03;;;;;;;;;;;8.00;87.00;;;;;;5098950;28;19912;-72
2022/04/13 04:05:29;;;;;;;;;;;8.00;86.70;;;;;;5098926;28;19962;-72
2022/04/13 04:07:55;;;;;;;;;;;8.00;86.70;;;;;;5115708;28;19912;-71
2022/04/13 04:10:20;;;;;;;;;;;8.00;86.90;;;;;;5104537;28;20366;-72
2022/04/13 04:12:46;;;;;;;;;;;8.00;87.00;;;;;;5111902;28;19908;-73
2022/04/13 04:15:12;;;;;;;;;;;8.00;86.90;;;;;;5109649;28;19919;-73
2022/04/13 04:17:37;;;;;;;;;;;8.10;87.00;;;;;;5116960;28;20017;-72
2022/04/13 04:20:04;;;;;;;;;;;8.10;86.70;;;;;;5117464;28;19916;-73
2022/04/13 04:22:30;;;;;;;;;;;8.10;87.00;;;;;;5117044;28;19908;-75
2022/04/13 04:24:55;;;;;;;;;;;8.10;87.20;;;;;;5118923;28;19919;-73
2022/04/13 04:27:21;;;;;;;;;;;8.00;87.00;;;;;;5100429;28;19908;-72
2022/04/13 04:29:46;;;;;;;;;;;8.10;87.30;;;;;;5103748;28;19916;-73
2022/04/13 04:32:12;;;;;;;;;;;8.00;87.40;;;;;;5110611;28;19924;-73
2022/04/13 04:34:38;;;;;;;;;;;8.00;87.60;;;;;;5118365;28;19984;-72
2022/04/13 04:37:04;;;;;;;;;;;8.00;87.50;;;;;;5101953;28;19976;-73
2022/04/13 04:39:30;;;;;;;;;;;8.00;87.10;;;;;;5098410;28;20440;-73
2022/04/13 04:41:55;;;;;;;;;;;8.00;86.90;;;;;;5098070;28;19973;-73
2022/04/13 04:44:21;;;;;;;;;;;8.00;86.50;;;;;;5098333;28;19908;-73
2022/04/13 04:46:47;;;;;;;;;;;8.00;86.10;;;;;;5098319;28;19914;-73
2022/04/13 04:49:12;;;;;;;;;;;8.00;85.90;;;;;;5098516;28;19957;-73
2022/04/13 04:51:38;;;;;;;;;;;8.00;86.00;;;;;;5098331;28;19909;-73
2022/04/13 04:54:04;;;;;;;;;;;8.00;86.40;;;;;;5098210;28;19908;-73
2022/04/13 04:56:30;;;;;;;;;;;8.00;86.50;;;;;;5098086;28;20270;-73
2022/04/13 04:58:55;;;;;;;;;;;8.00;86.40;;;;;;5097956;28;19908;-73
2022/04/13 05:01:21;;;;;;;;;;;8.00;86.20;;;;;;5084262;28;19919;-73
2022/04/13 05:03:49;;;;;;;;;;;8.00;86.50;;;;;;5108907;28;19927;-74
2022/04/13 05:06:19;;;;;;;;;;;7.90;86.80;;;;;;5117795;28;19912;-74
2022/04/13 05:08:44;;;;;;;;;;;7.90;86.90;;;;;;5117965;28;19915;-75
2022/04/13 05:11:10;;;;;;;;;;;7.90;86.90;;;;;;5115818;28;19947;-75
2022/04/13 05:13:35;;;;;;;;;;;7.90;87.10;;;;;;5116496;28;19955;-74
2022/04/13 05:16:01;;;;;;;;;;;7.90;87.10;;;;;;5084879;28;19912;-78
2022/04/13 05:18:27;;;;;;;;;;;7.80;87.00;;;;;;5088299;28;19973;-75
2022/04/13 05:20:53;;;;;;;;;;;7.80;87.00;;;;;;5113952;28;20412;-74
2022/04/13 05:23:18;;;;;;;;;;;7.80;86.80;;;;;;5113653;28;19912;-73
2022/04/13 05:25:46;;;;;;;;;;;7.80;86.80;;;;;;5110276;28;20294;-74
2022/04/13 05:28:12;;;;;;;;;;;7.80;87.00;;;;;;5103167;28;19916;-78
2022/04/13 05:30:38;;;;;;;;;;;7.80;87.20;;;;;;5084256;28;20400;-84
2022/04/13 05:33:03;;;;;;;;;;;7.80;87.10;;;;;;5087930;28;19928;-74
2022/04/13 05:35:29;;;;;;;;;;;7.80;86.60;;;;;;5100993;28;19955;-73
2022/04/13 05:37:55;;;;;;;;;;;7.80;86.70;;;;;;5112262;28;19911;-74
2022/04/13 05:40:22;;;;;;;;;;;7.80;86.90;;;;;;5117047;28;20292;-74
2022/04/13 05:42:48;;;;;;;;;;;7.70;86.30;;;;;;5120107;28;19918;-71
2022/04/13 05:45:14;;;;;;;;;;;7.80;86.20;;;;;;5118289;28;20441;-73
2022/04/13 05:47:42;;;;;;;;;;;7.80;86.00;;;;;;5118267;28;20282;-75
2022/04/13 05:50:08;;;;;;;;;;;7.70;86.40;;;;;;5120075;28;19915;-74
2022/04/13 05:52:34;;;;;;;;;;;7.70;86.50;;;;;;5111745;28;19919;-74
2022/04/13 05:54:59;;;;;;;;;;;7.70;86.30;;;;;;5103287;28;19908;-74
2022/04/13 05:57:25;;;;;;;;;;;7.70;86.40;;;;;;5110098;28;20014;-74
2022/04/13 05:59:51;;;;;;;;;;;7.70;86.60;;;;;;5116905;28;19974;-74
2022/04/13 06:02:16;;;;;;;;;;;7.70;86.60;;;;;;5110394;28;19919;-73
2022/04/13 06:04:42;;;;;;;;;;;7.70;86.70;;;;;;5121983;28;19984;-73
2022/04/13 06:07:07;;;;;;;;;;;7.70;86.80;;;;;;5110261;28;19942;-76
2022/04/13 06:09:34;;;;;;;;;;;7.70;87.00;;;;;;5115693;28;19919;-74
2022/04/13 06:12:00;;;;;;;;;;;7.80;87.40;;;;;;5119493;28;19917;-73
2022/04/13 06:14:25;;;;;;;;;;;7.80;87.60;;;;;;5109559;28;19995;-73
2022/04/13 06:16:51;;;;;;;;;;;7.80;87.50;;;;;;5119614;28;19923;-73
2022/04/13 06:19:16;;;;;;;;;;;7.90;87.60;;;;;;5103647;28;20385;-74
2022/04/13 06:21:42;;;;;;;;;;;7.90;87.40;;;;;;5088348;28;19964;-80
2022/04/13 06:24:08;;;;;;;;;;;8.00;87.40;;;;;;5085627;28;19934;-76
2022/04/13 06:26:34;;;;;;;;;;;8.10;87.70;;;;;;5099343;28;20366;-76
2022/04/13 06:28:59;;;;;;;;;;;8.20;88.60;;;;;;5101448;28;19916;-76
2022/04/13 06:31:25;;;;;;;;;;;8.30;88.70;;;;;;5091768;28;19984;-76
2022/04/13 06:33:52;;;;;;;;;;;8.40;87.50;;;;;;5115122;28;19951;-76
2022/04/13 06:36:18;;;;;;;;;;;8.40;87.00;;;;;;5120491;28;19912;-76
2022/04/13 06:38:44;;;;;;;;;;;8.50;87.20;;;;;;5118847;28;20278;-76
2022/04/13 06:41:13;;;;;;;;;;;8.60;87.40;;;;;;5111631;28;19919;-76
2022/04/13 06:43:39;;;;;;;;;;;8.60;87.60;;;;;;5120224;28;19916;-76
2022/04/13 06:46:05;;;;;;;;;;;8.80;89.40;;;;;;5119676;28;19912;-76
2022/04/13 06:48:31;;;;;;;;;;;8.80;88.90;;;;;;5120333;28;19982;-76
2022/04/13 06:50:57;;;;;;;;;;;8.80;88.30;;;;;;5120272;28;19912;-76
2022/04/13 06:53:23;;;;;;;;;;;8.90;87.30;;;;;;5119719;28;20381;-76
2022/04/13 06:55:49;;;;;;;;;;;8.90;86.90;;;;;;5112996;28;19962;-76
2022/04/13 06:58:15;;;;;;;;;;;8.90;86.90;;;;;;5120524;28;19962;-76
2022/04/13 07:00:41;;;;;;;;;;;9.00;87.00;;;;;;5119844;28;19933;-76
2022/04/13 07:03:07;;;;;;;;;;;9.10;87.30;;;;;;5116326;28;19912;-76
2022/04/13 07:05:32;;;;;;;;;;;9.20;87.60;;;;;;5111153;28;19919;-76
2022/04/13 07:07:58;;;;;;;;;;;9.30;88.00;;;;;;5120513;28;19915;-76
2022/04/13 07:10:27;;;;;;;;;;;9.50;88.40;;;;;;5120746;28;19960;-76
2022/04/13 07:12:53;;;;;;;;;;;9.60;88.50;;;;;;5120376;28;19908;-77
2022/04/13 07:15:19;;;;;;;;;;;9.70;88.30;;;;;;5120681;28;19956;-77
2022/04/13 07:17:45;;;;;;;;;;;9.80;88.30;;;;;;5084295;28;19971;-76
2022/04/13 07:20:11;;;;;;;;;;;10.00;88.50;;;;;;5110897;28;19914;-76
2022/04/13 07:22:47;;;;;;;;;;;10.10;88.30;;;;;;5120279;28;19908;-77
2022/04/13 07:25:13;;;;;;;;;;;10.20;88.20;;;;;;5120569;28;20003;-77
2022/04/13 07:27:38;;;;;;;;;;;10.40;88.30;;;;;;5097209;28;19955;-77
2022/04/13 07:30:04;;;;;;;;;;;10.50;88.30;;;;;;5118630;28;19923;-76
2022/04/13 07:32:30;;;;;;;;;;;10.60;88.10;;;;;;5115505;28;19971;-77
2022/04/13 07:34:59;;;;;;;;;;;10.70;87.90;;;;;;5120171;28;19908;-77
2022/04/13 07:37:25;;;;;;;;;;;10.80;87.70;;;;;;5118896;28;20468;-77
2022/04/13 07:39:51;;;;;;;;;;;10.90;88.00;;;;;;5110587;28;19943;-77
2022/04/13 07:42:20;;;;;;;;;;;11.10;87.90;;;;;;5111673;28;19912;-76
2022/04/13 07:44:46;;;;;;;;;;;11.20;87.90;;;;;;5119751;28;19912;-78
2022/04/13 07:47:14;;;;;;;;;;;11.30;87.80;;;;;;5119330;28;19908;-76
2022/04/13 07:49:41;;;;;;;;;;;11.40;87.70;;;;;;5119236;28;19916;-77
2022/04/13 07:52:07;;;;;;;;;;;11.60;87.70;;;;;;5114038;28;19923;-77
2022/04/13 07:54:33;;;;;;;;;;;11.70;87.50;;;;;;5088062;28;19955;-77
2022/04/13 07:56:58;;;;;;;;;;;11.80;87.30;;;;;;5112989;28;19911;-77
2022/04/13 07:59:24;;;;;;;;;;;11.90;86.90;;;;;;5118583;28;19912;-78
2022/04/13 08:01:50;;;;;;;;;;;12.00;86.40;;;;;;5118544;28;19964;-78
2022/04/13 08:04:15;;;;;;;;;;;12.00;86.10;;;;;;5119101;28;20392;-77
2022/04/13 08:06:41;;;;;;;;;;;12.00;85.90;;;;;;5119321;28;19920;-77
2022/04/13 08:09:07;;;;;;;;;;;12.10;85.80;;;;;;5087053;28;19919;-78
2022/04/13 08:11:32;;;;;;;;;;;12.20;85.80;;;;;;5113258;28;19912;-77
2022/04/13 08:13:58;;;;;;;;;;;12.30;86.00;;;;;;5118871;28;19939;-79
2022/04/13 08:16:23;;;;;;;;;;;12.30;86.10;;;;;;5092377;28;20374;-77
2022/04/13 08:18:49;;;;;;;;;;;12.50;85.90;;;;;;5098065;28;19984;-78
2022/04/13 08:21:15;;;;;;;;;;;12.60;85.60;;;;;;5111155;28;20002;-78
2022/04/13 08:23:40;;;;;;;;;;;12.70;85.40;;;;;;5118971;28;19919;-78
2022/04/13 08:26:06;;;;;;;;;;;12.80;85.60;;;;;;5110913;28;20455;-77
2022/04/13 08:28:31;;;;;;;;;;;12.90;85.90;;;;;;5088582;28;19923;-77
2022/04/13 08:30:57;;;;;;;;;;;13.10;85.90;;;;;;5115940;28;19911;-77
2022/04/13 08:33:24;;;;;;;;;;;13.30;86.00;;;;;;5118150;28;19920;-78
2022/04/13 08:35:49;;;;;;;;;;;13.50;86.00;;;;;;5118086;28;19912;-78
2022/04/13 08:38:15;;;;;;;;;;;13.70;85.70;;;;;;5118635;28;20465;-77
2022/04/13 08:40:47;;;;;;;;;;;14.00;85.10;;;;;;5096176;28;19908;-78
2022/04/13 08:43:16;;;;;;;;;;;14.20;84.30;;;;;;5100965;28;20277;-78
2022/04/13 08:45:54;;;;;;;;;;;14.30;84.20;;;;;;5085051;28;19908;-78
2022/04/13 08:48:23;;;;;;;;;;;14.50;84.10;;;;;;5098473;28;19912;-78
2022/04/13 08:50:50;;;;;;;;;;;14.70;84.20;;;;;;5107217;28;20377;-78
2022/04/13 08:53:19;;;;;;;;;;;14.90;84.00;;;;;;5118830;28;19915;-78
2022/04/13 08:55:50;;;;;;;;;;;15.20;83.80;;;;;;5110338;28;19908;-79
2022/04/13 08:58:29;;;;;;;;;;;15.40;83.20;;;;;;5102096;28;19957;-79
2022/04/13 09:00:57;;;;;;;;;;;15.70;83.30;;;;;;5118265;28;19919;-79
2022/04/13 09:03:25;;;;;;;;;;;16.00;83.30;;;;;;5117785;28;19955;-79
2022/04/13 09:05:52;;;;;;;;;;;16.40;84.20;;;;;;5118479;28;19947;-79
2022/04/13 09:08:21;;;;;;;;;;;16.90;84.50;;;;;;5090693;28;19916;-79
2022/04/13 09:10:48;;;;;;;;;;;17.40;83.00;;;;;;5090078;28;20344;-79
2022/04/13 09:13:15;;;;;;;;;;;17.90;82.10;;;;;;5117553;28;19912;-80
2022/04/13 09:15:41;;;;;;;;;;;18.50;82.50;;;;;;5117511;28;20002;-79
2022/04/13 09:18:08;;;;;;;;;;;19.20;81.10;;;;;;5118195;28;20319;-80
2022/04/13 09:20:33;;;;;;;;;;;19.70;81.10;;;;;;5117651;28;20035;-79
2022/04/13 09:22:59;;;;;;;;;;;20.40;79.70;;;;;;5117604;28;19947;-80
2022/04/13 09:25:26;;;;;;;;;;;21.00;78.90;;;;;;5116476;28;19912;-79
2022/04/13 09:27:52;;;;;;;;;;;21.70;77.20;;;;;;5095028;28;20374;-79
2022/04/13 09:30:18;;;;;;;;;;;22.30;75.20;;;;;;5116150;28;19923;-78
2022/04/13 09:32:44;;;;;;;;;;;22.90;73.90;;;;;;5103514;28;19928;-79
2022/04/13 09:35:10;;;;;;;;;;;23.30;73.20;;;;;;5117700;28;19986;-79
2022/04/13 09:37:36;;;;;;;;;;;23.80;71.80;;;;;;5117576;28;19912;-79
2022/04/13 09:40:02;;;;;;;;;;;24.20;69.60;;;;;;5109183;28;19928;-79
2022/04/13 09:42:28;;;;;;;;;;;24.60;70.50;;;;;;5117658;28;19935;-79
2022/04/13 09:44:57;;;;;;;;;;;25.00;68.40;;;;;;5117682;28;20433;-79
2022/04/13 09:47:28;;;;;;;;;;;25.40;66.00;;;;;;5117371;28;19912;-79
2022/04/13 09:49:55;;;;;;;;;;;25.80;68.60;;;;;;5117361;28;19916;-78
2022/04/13 09:52:39;;;;;;;;;;;26.30;67.40;;;;;;5117734;28;19961;-78
2022/04/13 09:55:05;;;;;;;;;;;26.60;65.80;;;;;;5108233;28;19920;-79
2022/04/13 09:57:31;;;;;;;;;;;27.00;64.20;;;;;;5091954;28;19912;-79
2022/04/13 09:59:58;;;;;;;;;;;27.20;62.60;;;;;;5106529;28;19912;-79
2022/04/13 10:02:37;;;;;;;;;;;27.50;62.40;;;;;;5117128;28;19919;-79
2022/04/13 10:05:06;;;;;;;;;;;27.80;62.20;;;;;;5105436;28;19918;-79
2022/04/13 10:07:32;;;;;;;;;;;28.10;61.70;;;;;;5114951;28;20392;-79
2022/04/13 10:09:58;;;;;;;;;;;28.40;61.20;;;;;;5117642;28;19923;-79
2022/04/13 10:12:24;;;;;;;;;;;28.70;61.90;;;;;;5116899;28;19911;-78
2022/04/13 10:14:49;;;;;;;;;;;29.10;60.40;;;;;;5116246;28;19919;-79
2022/04/13 10:17:20;;;;;;;;;;;29.40;58.80;;;;;;5115877;28;20297;-79
2022/04/13 10:19:53;;;;;;;;;;;29.60;57.80;;;;;;5117546;28;19912;-79
2022/04/13 10:22:19;;;;;;;;;;;29.90;58.00;;;;;;5113712;28;20443;-80
2022/04/13 10:24:44;;;;;;;;;;;30.20;57.50;;;;;;5121286;28;19947;-80
2022/04/13 10:27:20;;;;;;;;;;;30.40;56.10;;;;;;5103432;28;20280;-80
2022/04/13 10:29:49;;;;;;;;;;;30.60;56.70;;;;;;5117447;28;20002;-80
2022/04/13 10:32:25;;;;;;;;;;;30.90;56.80;;;;;;5109589;28;20382;-81
2022/04/13 10:34:52;;;;;;;;;;;31.20;54.90;;;;;;5090131;28;19947;-81
2022/04/13 10:37:19;;;;;;;;;;;31.30;53.60;;;;;;5104985;28;19961;-80
2022/04/13 10:39:46;;;;;;;;;;;31.50;57.00;;;;;;5099264;28;20026;-80
2022/04/13 10:42:13;;;;;;;;;;;31.80;56.80;;;;;;5114793;28;19908;-80
2022/04/13 10:44:42;;;;;;;;;;;32.10;55.00;;;;;;5104399;28;19959;-81
2022/04/13 10:47:09;;;;;;;;;;;32.30;53.60;;;;;;5118774;28;19908;-81
2022/04/13 10:50:01;;;;;;;;;;;32.50;52.90;;;;;;5120464;28;19915;-81
2022/04/13 10:52:35;;;;;;;;;;;32.60;52.80;;;;;;5110259;28;20285;-82
2022/04/13 10:55:05;;;;;;;;;;;32.80;53.30;;;;;;5118447;28;19912;-80
2022/04/13 10:57:39;;;;;;;;;;;32.90;52.10;;;;;;5112848;28;19911;-79
2022/04/13 11:00:05;;;;;;;;;;;32.60;50.60;;;;;;5119426;28;19911;-80
2022/04/13 11:02:42;;;;;;;;;;;32.30;49.70;;;;;;5120028;28;19941;-80
2022/04/13 11:05:08;;;;;;;;;;;32.30;51.30;;;;;;5095006;28;19919;-81
2022/04/13 11:07:34;;;;;;;;;;;32.50;48.00;;;;;;5120351;28;19916;-81
2022/04/13 11:10:01;;;;;;;;;;;32.70;50.30;;;;;;5120161;28;19915;-81
2022/04/13 11:12:27;;;;;;;;;;;33.00;50.20;;;;;;5119800;28;19912;-81
2022/04/13 11:14:54;;;;;;;;;;;33.20;48.10;;;;;;5119826;28;19926;-81
2022/04/13 11:17:19;;;;;;;;;;;33.40;50.10;;;;;;5119999;28;19989;-81
2022/04/13 11:19:47;;;;;;;;;;;33.60;49.90;;;;;;5120141;28;19912;-81
2022/04/13 11:22:15;;;;;;;;;;;33.80;50.70;;;;;;5119057;28;19911;-80
2022/04/13 11:24:42;;;;;;;;;;;33.90;46.60;;;;;;5108951;28;19991;-79
2022/04/13 11:27:09;;;;;;;;;;;33.70;48.20;;;;;;5101424;28;20459;-78
2022/04/13 11:29:35;;;;;;;;;;;33.10;45.90;;;;;;5103106;28;20006;-76
2022/04/13 11:32:01;;;;;;;;;;;32.40;44.90;;;;;;5102952;28;19928;-78
2022/04/13 11:34:27;;;;;;;;;;;31.80;44.70;;;;;;5101249;28;19968;-78
2022/04/13 11:36:57;;;;;;;;;;;31.60;46.60;;;;;;5098479;28;19912;-83
2022/04/13 11:39:41;;;;;;;;;;;31.30;46.20;;;;;;5111104;28;19919;-80
2022/04/13 11:42:13;;;;;;;;;;;31.20;46.10;;;;;;5083390;28;19920;-76
2022/04/13 11:44:48;;;;;;;;;;;30.90;47.20;;;;;;5103364;28;19919;-80
2022/04/13 11:47:15;;;;;;;;;;;30.30;42.60;;;;;;5092751;28;19908;-80
2022/04/13 11:50:07;;;;;;;;;;;29.90;44.80;;;;;;5103972;28;19920;-81
2022/04/13 11:52:51;;;;;;;;;;;29.70;46.70;;;;;;5069575;28;19960;-80
2022/04/13 11:55:22;;;;;;;;;;;29.40;46.50;;;;;;5106347;28;19947;-80
2022/04/13 11:57:59;;;;;;;;;;;29.10;47.60;;;;;;5098711;28;20385;-80
2022/04/13 12:00:45;;;;;;;;;;;29.00;47.30;;;;;;5095480;28;19909;-79
2022/04/13 12:03:15;;;;;;;;;;;28.90;48.10;;;;;;5100138;28;19912;-82
2022/04/13 12:05:42;;;;;;;;;;;28.70;49.00;;;;;;5086329;28;19913;-81
2022/04/13 12:08:09;;;;;;;;;;;28.70;48.10;;;;;;5107923;28;19916;-80
2022/04/13 12:10:36;;;;;;;;;;;28.70;47.40;;;;;;5100958;28;19908;-79
2022/04/13 12:13:03;;;;;;;;;;;28.50;47.70;;;;;;5110119;28;19912;-79
2022/04/13 12:15:51;;;;;;;;;;;28.30;47.30;;;;;;5081780;28;19912;-79
2022/04/13 12:18:18;;;;;;;;;;;28.00;47.10;;;;;;5081063;28;20346;-79
2022/04/13 12:20:44;;;;;;;;;;;27.70;47.70;;;;;;5110186;28;19916;-79
2022/04/13 12:23:28;;;;;;;;;;;27.40;47.80;;;;;;5100932;28;20529;-79
2022/04/13 12:25:54;;;;;;;;;;;27.00;47.90;;;;;;5097253;28;20006;-79
2022/04/13 12:28:22;;;;;;;;;;;26.60;48.20;;;;;;5098230;28;19908;-78
2022/04/13 12:31:07;;;;;;;;;;;26.20;48.40;;;;;;5098501;28;19908;-79
2022/04/13 12:33:33;;;;;;;;;;;25.90;48.90;;;;;;5096603;28;19927;-78
2022/04/13 12:36:02;;;;;;;;;;;25.70;49.00;;;;;;5092192;28;19918;-78
2022/04/13 12:38:29;;;;;;;;;;;25.50;49.80;;;;;;5097671;28;20293;-79
2022/04/13 12:41:02;;;;;;;;;;;25.50;50.70;;;;;;5098514;28;19912;-78
2022/04/13 12:43:28;;;;;;;;;;;26.00;52.00;;;;;;5091778;28;19916;-79
2022/04/13 12:45:54;;;;;;;;;;;26.50;51.30;;;;;;5097636;28;19962;-78
2022/04/13 12:48:26;;;;;;;;;;;26.80;49.90;;;;;;5097417;28;19912;-77
2022/04/13 12:50:59;;;;;;;;;;;26.80;48.80;;;;;;5098121;28;20274;-78
2022/04/13 12:53:25;;;;;;;;;;;26.70;48.70;;;;;;5097461;28;19967;-78
2022/04/13 12:55:53;;;;;;;;;;;26.60;49.80;;;;;;5097581;28;20281;-78
2022/04/13 12:58:19;;;;;;;;;;;26.50;48.40;;;;;;5079276;28;20373;-78
2022/04/13 13:00:52;;;;;;;;;;;26.40;48.80;;;;;;5097381;28;19934;-78
2022/04/13 13:03:18;;;;;;;;;;;26.20;49.30;;;;;;5079720;28;19916;-78
2022/04/13 13:05:44;;;;;;;;;;;26.00;49.90;;;;;;5097768;28;19919;-78
2022/04/13 13:08:10;;;;;;;;;;;25.80;50.60;;;;;;5097027;28;20266;-77
2022/04/13 13:10:36;;;;;;;;;;;25.70;50.70;;;;;;5097640;28;19931;-77
2022/04/13 13:13:08;;;;;;;;;;;25.50;49.50;;;;;;5097263;28;19908;-77
2022/04/13 13:15:35;;;;;;;;;;;25.30;50.80;;;;;;5097768;28;19977;-78
2022/04/13 13:18:04;;;;;;;;;;;25.20;51.40;;;;;;5091387;28;19915;-77
2022/04/13 13:20:30;;;;;;;;;;;25.10;51.40;;;;;;5097665;28;20354;-78
2022/04/13 13:22:55;;;;;;;;;;;25.00;51.00;;;;;;5097700;28;19908;-79
2022/04/13 13:25:21;;;;;;;;;;;24.80;50.50;;;;;;5095890;28;19965;-76
2022/04/13 13:27:57;;;;;;;;;;;24.60;51.20;;;;;;5095766;28;19919;-80
2022/04/13 13:30:23;;;;;;;;;;;24.50;51.40;;;;;;5073513;28;19918;-78
2022/04/13 13:32:53;;;;;;;;;;;24.40;51.20;;;;;;5104151;28;19920;-77
2022/04/13 13:35:20;;;;;;;;;;;24.20;51.90;;;;;;5100715;28;19916;-82
2022/04/13 13:37:47;;;;;;;;;;;24.20;51.40;;;;;;5092733;28;19908;-79
2022/04/13 13:40:35;;;;;;;;;;;24.10;50.90;;;;;;5109507;28;19912;-80
2022/04/13 13:43:30;;;;;;;;;;;23.90;51.50;;;;;;5075884;28;19919;-79
2022/04/13 13:45:56;;;;;;;;;;;23.70;51.60;;;;;;5111728;28;19912;-78
2022/04/13 13:48:23;;;;;;;;;;;23.60;51.80;;;;;;5105633;28;19912;-79
2022/04/13 13:50:53;;;;;;;;;;;23.40;52.20;;;;;;5111876;28;19912;-80
2022/04/13 13:53:22;;;;;;;;;;;23.40;53.00;;;;;;5101085;28;19908;-79
2022/04/13 13:55:48;;;;;;;;;;;23.30;53.00;;;;;;5114674;28;19912;-80
2022/04/13 13:58:15;;;;;;;;;;;23.30;53.80;;;;;;5121727;28;19907;-80
2022/04/13 14:00:40;;;;;;;;;;;23.30;53.50;;;;;;5120459;28;20014;-80
2022/04/13 14:03:07;;;;;;;;;;;23.40;53.30;;;;;;5121985;28;19912;-80
2022/04/13 14:05:33;;;;;;;;;;;23.40;53.00;;;;;;5121830;28;19908;-80
2022/04/13 14:08:00;;;;;;;;;;;23.30;52.80;;;;;;5121956;28;20377;-80
2022/04/13 14:10:28;;;;;;;;;;;23.30;52.90;;;;;;5121621;28;19912;-80
2022/04/13 14:12:54;;;;;;;;;;;23.40;53.10;;;;;;5121491;28;19908;-80
2022/04/13 14:15:20;;;;;;;;;;;23.30;53.60;;;;;;5121944;28;19908;-79
2022/04/13 14:17:46;;;;;;;;;;;23.40;53.90;;;;;;5111738;28;19915;-79
2022/04/13 14:20:12;;;;;;;;;;;23.50;54.50;;;;;;5121875;28;19915;-79
2022/04/13 14:22:39;;;;;;;;;;;23.50;54.00;;;;;;5121583;28;19908;-79
2022/04/13 14:25:06;;;;;;;;;;;23.40;54.50;;;;;;5116979;28;20049;-79